createdAt,value
2019-03-16T00:00:58.700Z,0.70
2019-03-16T00:03:25.835Z,0.90
2019-03-16T00:05:52.966Z,0.80
2019-03-16T00:08:20.165Z,0.90
2019-03-16T00:10:47.172Z,0.70
2019-03-16T00:13:16.080Z,0.60
2019-03-16T00:15:43.140Z,0.80
2019-03-16T00:18:10.294Z,0.75
2019-03-16T00:20:37.218Z,0.57
2019-03-16T00:23:04.398Z,0.95
2019-03-16T00:25:31.604Z,0.80
2019-03-16T00:27:58.808Z,0.55
2019-03-16T00:30:25.702Z,0.72
2019-03-16T00:32:53.342Z,0.70
2019-03-16T00:35:20.369Z,0.90
2019-03-16T00:37:47.472Z,0.70
2019-03-16T00:40:14.553Z,0.68
2019-03-16T00:42:41.771Z,0.90
2019-03-16T00:45:11.067Z,0.70
2019-03-16T00:47:38.245Z,0.70
2019-03-16T00:50:11.664Z,0.78
2019-03-16T00:52:39.007Z,0.90
2019-03-16T00:55:07.796Z,0.80
2019-03-16T00:57:34.664Z,0.70
2019-03-16T01:00:07.901Z,0.60
2019-03-16T01:02:35.250Z,0.55
2019-03-16T01:05:04.198Z,0.80
2019-03-16T01:07:30.982Z,0.85
2019-03-16T01:09:57.766Z,0.80
2019-03-16T01:12:24.541Z,0.70
2019-03-16T01:14:51.962Z,1.35
2019-03-16T01:17:19.689Z,0.90
2019-03-16T01:19:46.787Z,1.00
2019-03-16T01:22:13.527Z,0.80
2019-03-16T01:24:40.562Z,0.90
2019-03-16T01:27:08.008Z,1.00
2019-03-16T01:29:35.092Z,0.98
2019-03-16T01:32:02.332Z,1.30
2019-03-16T01:34:29.147Z,1.07
2019-03-16T01:36:56.739Z,1.10
2019-03-16T01:39:23.592Z,1.20
2019-03-16T01:41:50.616Z,1.10
2019-03-16T01:44:17.449Z,0.90
2019-03-16T01:46:44.597Z,1.00
2019-03-16T01:49:11.727Z,0.90
2019-03-16T01:51:38.926Z,0.80
2019-03-16T01:54:06.089Z,1.00
2019-03-16T01:56:33.432Z,0.98
2019-03-16T01:59:00.701Z,0.80
2019-03-16T02:01:27.631Z,1.00
2019-03-16T02:03:54.877Z,1.02
2019-03-16T02:06:21.983Z,0.90
2019-03-16T02:08:49.273Z,0.82
2019-03-16T02:11:16.228Z,0.98
2019-03-16T02:13:43.108Z,0.98
2019-03-16T02:16:11.313Z,1.00
2019-03-16T02:18:38.997Z,0.90
2019-03-16T02:21:06.736Z,0.70
2019-03-16T02:23:33.474Z,0.68
2019-03-16T02:26:00.603Z,0.70
2019-03-16T02:28:27.553Z,0.90
2019-03-16T02:30:54.337Z,0.80
2019-03-16T02:33:21.565Z,0.90
2019-03-16T02:35:48.459Z,0.53
2019-03-16T02:38:16.202Z,0.80
2019-03-16T02:40:42.980Z,0.80
2019-03-16T02:43:10.093Z,0.90
2019-03-16T02:45:37.151Z,0.90
2019-03-16T02:48:04.755Z,0.70
2019-03-16T02:50:31.548Z,0.95
2019-03-16T02:52:58.574Z,1.07
2019-03-16T02:55:25.349Z,1.25
2019-03-16T02:57:52.721Z,1.20
2019-03-16T03:00:20.017Z,1.47
2019-03-16T03:02:50.457Z,1.80
2019-03-16T03:05:23.804Z,1.60
2019-03-16T03:07:50.626Z,1.40
2019-03-16T03:10:17.759Z,1.62
2019-03-16T03:12:45.062Z,1.50
2019-03-16T03:15:12.169Z,1.60
2019-03-16T03:17:39.029Z,1.80
2019-03-16T03:20:08.494Z,1.80
2019-03-16T03:22:35.477Z,1.60
2019-03-16T03:25:04.145Z,1.70
2019-03-16T03:27:31.030Z,1.52
2019-03-16T03:29:58.365Z,1.72
2019-03-16T03:32:25.138Z,1.92
2019-03-16T03:34:52.175Z,1.82
2019-03-16T03:37:19.026Z,2.50
2019-03-16T03:39:46.169Z,1.87
2019-03-16T03:42:16.676Z,2.02
2019-03-16T03:44:43.557Z,1.70
2019-03-16T03:47:10.357Z,2.02
2019-03-16T03:49:37.634Z,2.17
2019-03-16T03:52:04.949Z,2.37
2019-03-16T03:54:31.990Z,2.20
2019-03-16T03:56:59.137Z,2.10
2019-03-16T03:59:26.032Z,2.45
2019-03-16T04:01:53.045Z,2.10
2019-03-16T04:04:19.802Z,2.25
2019-03-16T04:06:46.737Z,2.00
2019-03-16T04:09:13.517Z,2.10
2019-03-16T04:11:40.330Z,2.20
2019-03-16T04:14:07.502Z,2.10
2019-03-16T04:16:34.541Z,1.90
2019-03-16T04:19:01.397Z,2.30
2019-03-16T04:21:28.359Z,2.10
2019-03-16T04:23:55.488Z,2.08
2019-03-16T04:26:22.590Z,2.30
2019-03-16T04:28:50.461Z,1.95
2019-03-16T04:31:23.073Z,1.80
2019-03-16T04:34:09.547Z,1.80
2019-03-16T04:36:36.838Z,1.98
2019-03-16T04:39:15.958Z,1.87
2019-03-16T04:42:11.131Z,1.60
2019-03-16T04:45:02.806Z,1.82
2019-03-16T04:47:37.646Z,1.45
2019-03-16T04:50:08.099Z,1.22
2019-03-16T04:52:34.979Z,1.27
2019-03-16T04:55:01.991Z,1.10
2019-03-16T04:57:42.566Z,0.98
2019-03-16T05:00:14.038Z,1.00
2019-03-16T05:02:41.060Z,1.30
2019-03-16T05:05:08.146Z,1.30
2019-03-16T05:07:35.201Z,1.30
2019-03-16T05:10:07.248Z,1.30
2019-03-16T05:13:07.562Z,2.08
2019-03-16T05:15:57.045Z,1.52
2019-03-16T05:18:23.911Z,1.30
2019-03-16T05:20:50.708Z,1.47
2019-03-16T05:23:17.951Z,1.20
2019-03-16T05:25:44.987Z,2.45
2019-03-16T05:28:12.591Z,1.25
2019-03-16T05:30:41.240Z,1.10
2019-03-16T05:33:08.048Z,1.32
2019-03-16T05:35:35.359Z,1.32
2019-03-16T05:38:02.290Z,1.60
2019-03-16T05:40:29.387Z,1.30
2019-03-16T05:42:56.440Z,1.27
2019-03-16T05:45:23.635Z,1.20
2019-03-16T05:47:50.688Z,1.32
2019-03-16T05:50:17.434Z,1.20
2019-03-16T05:52:44.278Z,1.42
2019-03-16T05:55:11.124Z,1.50
2019-03-16T05:57:37.982Z,1.30
2019-03-16T06:00:16.174Z,1.40
2019-03-16T06:02:43.459Z,1.22
2019-03-16T06:05:11.432Z,1.75
2019-03-16T06:07:38.444Z,1.65
2019-03-16T06:10:09.986Z,1.60
2019-03-16T06:12:36.854Z,2.00
2019-03-16T06:15:08.103Z,1.98
2019-03-16T06:17:34.996Z,2.10
2019-03-16T06:20:04.898Z,1.87
2019-03-16T06:22:31.806Z,2.17
2019-03-16T06:24:58.900Z,2.10
2019-03-16T06:27:25.769Z,2.50
2019-03-16T06:29:52.733Z,1.98
2019-03-16T06:32:19.590Z,2.08
2019-03-16T06:34:46.703Z,2.30
2019-03-16T06:37:15.709Z,2.15
2019-03-16T06:39:42.598Z,2.08
2019-03-16T06:42:09.486Z,2.20
2019-03-16T06:44:36.350Z,2.12
2019-03-16T06:47:03.531Z,2.02
2019-03-16T06:49:30.577Z,2.20
2019-03-16T06:51:57.752Z,2.40
2019-03-16T06:54:24.999Z,2.42
2019-03-16T06:56:52.050Z,2.30
2019-03-16T06:59:19.562Z,2.42
2019-03-16T07:01:46.739Z,2.20
2019-03-16T07:04:13.613Z,2.40
2019-03-16T07:06:40.406Z,2.05
2019-03-16T07:09:07.346Z,2.40
2019-03-16T07:11:34.726Z,2.10
2019-03-16T07:14:01.567Z,2.42
2019-03-16T07:16:28.384Z,2.42
2019-03-16T07:18:58.969Z,2.67
2019-03-16T07:21:24.201Z,2.37
2019-03-16T07:23:51.753Z,2.08
2019-03-16T07:26:18.880Z,2.37
2019-03-16T07:28:48.580Z,2.75
2019-03-16T07:31:15.362Z,2.42
2019-03-16T07:33:43.517Z,2.47
2019-03-16T07:36:10.588Z,2.62
2019-03-16T07:38:37.799Z,2.30
2019-03-16T07:41:05.076Z,2.42
2019-03-16T07:43:32.200Z,1.90
2019-03-16T07:45:59.235Z,2.20
2019-03-16T07:48:26.260Z,2.50
2019-03-16T07:50:53.016Z,2.17
2019-03-16T07:53:19.774Z,2.00
2019-03-16T07:55:47.869Z,2.12
2019-03-16T07:58:14.762Z,2.60
2019-03-16T08:00:41.945Z,2.15
2019-03-16T08:03:08.857Z,2.10
2019-03-16T08:05:35.718Z,2.08
2019-03-16T08:08:03.095Z,1.92
2019-03-16T08:10:30.001Z,2.12
2019-03-16T08:12:57.298Z,1.98
2019-03-16T08:15:24.043Z,1.70
2019-03-16T08:17:50.935Z,1.87
2019-03-16T08:20:18.224Z,2.27
2019-03-16T08:22:44.976Z,1.90
2019-03-16T08:25:12.144Z,1.80
2019-03-16T08:27:39.099Z,1.85
2019-03-16T08:30:09.717Z,1.90
2019-03-16T08:32:37.165Z,1.90
2019-03-16T08:35:05.893Z,2.00
2019-03-16T08:37:32.674Z,1.80
2019-03-16T08:39:59.752Z,2.25
2019-03-16T08:42:26.603Z,1.90
2019-03-16T08:44:53.405Z,2.22
2019-03-16T08:47:20.250Z,2.05
2019-03-16T08:49:47.141Z,2.20
2019-03-16T08:52:13.945Z,2.00
2019-03-16T08:54:40.824Z,2.05
2019-03-16T08:57:07.615Z,2.12
2019-03-16T08:59:34.377Z,2.10
2019-03-16T09:02:03.786Z,2.00
2019-03-16T09:04:30.746Z,2.20
2019-03-16T09:06:57.879Z,2.20
2019-03-16T09:09:24.746Z,1.80
2019-03-16T09:11:51.620Z,1.80
2019-03-16T09:14:18.538Z,1.90
2019-03-16T09:16:45.783Z,2.08
2019-03-16T09:19:13.253Z,1.60
2019-03-16T09:21:40.116Z,1.52
2019-03-16T09:24:07.044Z,1.50
2019-03-16T09:26:34.127Z,1.60
2019-03-16T09:29:01.033Z,1.25
2019-03-16T09:31:27.919Z,1.40
2019-03-16T09:33:54.753Z,1.40
2019-03-16T09:36:24.474Z,1.17
2019-03-16T09:38:51.666Z,1.07
2019-03-16T09:41:18.776Z,1.47
2019-03-16T09:43:45.785Z,1.20
2019-03-16T09:46:12.754Z,1.30
2019-03-16T09:48:39.977Z,1.30
2019-03-16T09:51:06.743Z,1.30
2019-03-16T09:53:33.639Z,1.20
2019-03-16T09:56:00.422Z,1.30
2019-03-16T09:58:31.397Z,1.10
2019-03-16T10:00:56.721Z,1.20
2019-03-16T10:03:24.075Z,1.35
2019-03-16T10:05:51.749Z,1.27
2019-03-16T10:08:19.356Z,1.12
2019-03-16T10:10:47.000Z,1.20
2019-03-16T10:13:14.318Z,1.57
2019-03-16T10:15:41.339Z,1.40
2019-03-16T10:18:08.175Z,1.35
2019-03-16T10:20:35.069Z,1.50
2019-03-16T10:23:02.334Z,1.40
2019-03-16T10:25:29.712Z,1.30
2019-03-16T10:27:56.499Z,1.40
2019-03-16T10:30:23.341Z,1.22
2019-03-16T10:32:50.123Z,1.15
2019-03-16T10:35:17.256Z,1.37
2019-03-16T10:37:44.507Z,1.10
2019-03-16T10:40:13.413Z,1.10
2019-03-16T10:42:42.020Z,1.10
2019-03-16T10:45:10.573Z,0.78
2019-03-16T10:47:37.337Z,1.60
2019-03-16T10:50:11.050Z,0.80
2019-03-16T10:52:38.169Z,1.30
2019-03-16T10:55:07.076Z,1.10
2019-03-16T10:57:36.629Z,1.15
2019-03-16T11:00:10.481Z,1.10
2019-03-16T11:02:37.225Z,1.10
2019-03-16T11:05:04.982Z,1.10
2019-03-16T11:07:32.211Z,1.20
2019-03-16T11:09:59.059Z,1.60
2019-03-16T11:12:25.972Z,0.85
2019-03-16T11:14:52.988Z,1.02
2019-03-16T11:17:20.439Z,0.80
2019-03-16T11:19:47.257Z,1.27
2019-03-16T11:22:14.048Z,0.90
2019-03-16T11:24:41.375Z,0.80
2019-03-16T11:27:08.228Z,1.10
2019-03-16T11:29:35.283Z,0.90
2019-03-16T11:32:02.517Z,0.78
2019-03-16T11:34:29.670Z,1.17
2019-03-16T11:36:56.619Z,1.07
2019-03-16T11:39:26.633Z,1.20
2019-03-16T11:41:53.538Z,1.50
2019-03-16T11:44:20.386Z,1.05
2019-03-16T11:46:47.161Z,0.90
2019-03-16T11:49:14.039Z,1.17
2019-03-16T11:51:40.957Z,1.07
2019-03-16T11:54:07.817Z,1.60
2019-03-16T11:56:34.933Z,1.12
2019-03-16T11:59:02.385Z,1.10
2019-03-16T12:01:29.165Z,1.00
2019-03-16T12:03:55.978Z,1.22
2019-03-16T12:06:23.130Z,1.27
2019-03-16T12:08:50.594Z,1.00
2019-03-16T12:11:17.338Z,1.00
2019-03-16T12:13:44.213Z,1.05
2019-03-16T12:16:11.075Z,1.20
2019-03-16T12:18:37.836Z,1.00
2019-03-16T12:21:05.128Z,0.70
2019-03-16T12:23:31.969Z,0.75
2019-03-16T12:25:58.696Z,0.60
2019-03-16T12:28:25.437Z,1.00
2019-03-16T12:30:52.338Z,1.15
2019-03-16T12:33:19.159Z,0.90
2019-03-16T12:35:48.769Z,0.70
2019-03-16T12:38:16.007Z,1.00
2019-03-16T12:40:43.063Z,0.62
2019-03-16T12:43:10.008Z,0.70
2019-03-16T12:45:36.766Z,0.70
2019-03-16T12:48:04.046Z,0.88
2019-03-16T12:50:31.220Z,1.20
2019-03-16T12:52:58.502Z,1.00
2019-03-16T12:55:25.388Z,0.93
2019-03-16T12:57:53.640Z,1.15
2019-03-16T13:00:20.536Z,1.25
2019-03-16T13:02:47.407Z,0.98
2019-03-16T13:05:14.408Z,0.90
2019-03-16T13:07:41.854Z,1.45
2019-03-16T13:10:14.593Z,1.10
2019-03-16T13:15:09.422Z,1.32
2019-03-16T13:17:37.027Z,1.30
2019-03-16T13:20:11.304Z,1.95
2019-03-16T13:22:38.153Z,1.30
2019-03-16T13:25:09.957Z,1.30
2019-03-16T13:27:37.399Z,2.40
2019-03-16T13:30:13.852Z,2.10
2019-03-16T13:32:43.753Z,1.85
2019-03-16T13:35:11.695Z,1.77
2019-03-16T13:37:38.678Z,1.20
2019-03-16T13:40:14.955Z,1.75
2019-03-16T13:42:42.437Z,1.02
2019-03-16T13:45:10.034Z,1.05
2019-03-16T13:47:37.142Z,2.80
2019-03-16T13:50:11.751Z,1.77
2019-03-16T13:52:39.139Z,1.55
2019-03-16T13:55:07.306Z,0.70
2019-03-16T13:57:34.092Z,0.95
2019-03-16T14:00:11.249Z,1.20
2019-03-16T14:02:29.573Z,1.22
2019-03-16T14:04:56.361Z,0.80
2019-03-16T14:07:23.759Z,0.80
2019-03-16T14:09:51.015Z,0.78
2019-03-16T14:12:17.852Z,0.90
2019-03-16T14:14:44.970Z,0.93
2019-03-16T14:17:11.701Z,1.30
2019-03-16T14:19:38.608Z,1.20
2019-03-16T14:22:07.342Z,1.30
2019-03-16T14:24:34.234Z,1.27
2019-03-16T14:27:03.962Z,1.30
2019-03-16T14:29:30.856Z,1.30
2019-03-16T14:31:57.598Z,1.00
2019-03-16T14:34:24.774Z,1.10
2019-03-16T14:36:52.093Z,1.00
2019-03-16T14:39:19.460Z,1.22
2019-03-16T14:41:46.695Z,1.30
2019-03-16T14:44:13.996Z,1.07
2019-03-16T14:46:40.905Z,1.20
2019-03-16T14:49:08.435Z,1.20
2019-03-16T14:51:35.222Z,1.30
2019-03-16T14:54:02.287Z,1.02
2019-03-16T14:56:29.100Z,1.20
2019-03-16T14:58:55.977Z,1.00
2019-03-16T15:01:23.824Z,1.42
2019-03-16T15:03:50.768Z,1.20
2019-03-16T15:06:17.769Z,1.07
2019-03-16T15:08:44.668Z,1.02
2019-03-16T15:11:11.891Z,1.15
2019-03-16T15:13:38.669Z,1.30
2019-03-16T15:16:05.812Z,1.00
2019-03-16T15:18:33.027Z,1.20
2019-03-16T15:20:59.889Z,1.10
2019-03-16T15:23:27.307Z,1.00
2019-03-16T15:25:57.310Z,0.90
2019-03-16T15:28:24.582Z,1.10
2019-03-16T15:30:51.461Z,1.10
2019-03-16T15:33:18.231Z,1.30
2019-03-16T15:35:45.333Z,1.12
2019-03-16T15:38:12.644Z,0.82
2019-03-16T15:40:39.654Z,0.93
2019-03-16T15:43:06.402Z,0.90
2019-03-16T15:45:33.370Z,0.80
2019-03-16T15:48:00.242Z,1.20
2019-03-16T15:50:27.028Z,1.00
2019-03-16T15:52:53.799Z,1.47
2019-03-16T15:55:20.864Z,1.40
2019-03-16T15:57:50.485Z,1.10
2019-03-16T16:00:18.654Z,1.00
2019-03-16T16:02:45.883Z,1.20
2019-03-16T16:05:12.961Z,1.10
2019-03-16T16:07:41.765Z,0.90
2019-03-16T16:10:18.060Z,0.98
2019-03-16T16:12:45.022Z,1.00
2019-03-16T16:15:12.846Z,1.05
2019-03-16T16:17:39.919Z,0.88
2019-03-16T16:20:13.395Z,0.95
2019-03-16T16:22:40.641Z,0.95
2019-03-16T16:25:12.335Z,1.02
2019-03-16T16:27:39.483Z,1.40
2019-03-16T16:30:11.852Z,1.00
2019-03-16T16:32:38.780Z,1.10
2019-03-16T16:35:08.832Z,1.12
2019-03-16T16:37:35.594Z,0.80
2019-03-16T16:40:06.870Z,1.30
2019-03-16T16:42:34.840Z,1.17
2019-03-16T16:45:02.536Z,0.98
2019-03-16T16:47:29.291Z,1.00
2019-03-16T16:49:56.493Z,1.50
2019-03-16T16:52:25.819Z,1.50
2019-03-16T16:54:52.934Z,2.00
2019-03-16T16:57:20.764Z,1.75
2019-03-16T16:59:49.290Z,1.30
2019-03-16T17:02:16.258Z,1.37
2019-03-16T17:04:43.037Z,1.17
2019-03-16T17:07:10.503Z,1.60
2019-03-16T17:09:37.603Z,1.72
2019-03-16T17:12:05.186Z,1.60
2019-03-16T17:14:32.426Z,2.00
2019-03-16T17:16:59.263Z,1.80
2019-03-16T17:19:26.481Z,2.20
2019-03-16T17:21:53.399Z,2.10
2019-03-16T17:24:20.329Z,2.00
2019-03-16T17:26:47.057Z,1.90
2019-03-16T17:29:13.818Z,2.10
2019-03-16T17:31:42.464Z,2.05
2019-03-16T17:34:09.679Z,2.10
2019-03-16T17:36:36.523Z,2.17
2019-03-16T17:39:05.201Z,2.40
2019-03-16T17:41:32.133Z,2.40
2019-03-16T17:43:58.901Z,2.00
2019-03-16T17:46:25.674Z,1.98
2019-03-16T17:48:52.618Z,1.90
2019-03-16T17:51:19.596Z,1.70
2019-03-16T17:53:47.089Z,1.65
2019-03-16T17:56:14.173Z,1.80
2019-03-16T17:58:40.955Z,1.50
2019-03-16T18:01:07.759Z,1.27
2019-03-16T18:03:34.519Z,1.30
2019-03-16T18:06:01.675Z,1.20
2019-03-16T18:08:28.425Z,1.40
2019-03-16T18:10:55.183Z,1.80
2019-03-16T18:13:22.251Z,2.47
2019-03-16T18:15:49.080Z,1.87
2019-03-16T18:18:15.980Z,1.80
2019-03-16T18:20:42.866Z,1.65
2019-03-16T18:23:09.668Z,1.80
2019-03-16T18:25:37.922Z,1.90
2019-03-16T18:28:04.925Z,1.40
2019-03-16T18:30:32.275Z,1.60
2019-03-16T18:32:59.274Z,1.82
2019-03-16T18:35:26.043Z,1.80
2019-03-16T18:37:52.978Z,1.75
2019-03-16T18:40:19.717Z,1.50
2019-03-16T18:42:46.579Z,1.90
2019-03-16T18:45:23.180Z,1.80
2019-03-16T18:47:51.964Z,1.80
2019-03-16T18:50:19.876Z,2.00
2019-03-16T18:52:46.778Z,1.70
2019-03-16T18:55:13.769Z,1.80
2019-03-16T18:57:40.795Z,1.70
2019-03-16T19:00:14.877Z,2.50
2019-03-16T19:02:46.488Z,2.77
2019-03-16T19:05:13.637Z,2.42
2019-03-16T19:07:40.655Z,3.15
2019-03-16T19:10:12.804Z,3.33
2019-03-16T19:12:40.067Z,3.10
2019-03-16T19:15:12.169Z,3.00
2019-03-16T19:17:39.039Z,3.30
2019-03-16T19:20:10.169Z,3.25
2019-03-16T19:22:37.293Z,2.87
2019-03-16T19:25:20.797Z,3.30
2019-03-16T19:27:47.687Z,2.92
2019-03-16T19:30:15.825Z,3.00
2019-03-16T19:32:43.471Z,3.00
2019-03-16T19:35:10.512Z,3.20
2019-03-16T19:37:37.539Z,3.20
2019-03-16T19:40:14.230Z,3.20
2019-03-16T19:42:41.155Z,2.55
2019-03-16T19:45:10.209Z,2.70
2019-03-16T19:47:37.016Z,2.62
2019-03-16T19:50:14.587Z,2.75
2019-03-16T19:52:42.471Z,3.10
2019-03-16T19:55:13.632Z,2.62
2019-03-16T19:57:43.609Z,3.10
2019-03-16T20:00:17.102Z,3.00
2019-03-16T20:02:50.035Z,4.20
2019-03-16T20:05:13.834Z,2.90
2019-03-16T20:07:40.870Z,3.42
2019-03-16T20:10:17.725Z,2.92
2019-03-16T20:12:44.835Z,3.65
2019-03-16T20:15:13.745Z,3.08
2019-03-16T20:17:40.608Z,3.20
2019-03-16T20:20:11.593Z,2.80
2019-03-16T20:22:38.661Z,2.90
2019-03-16T20:25:07.084Z,3.20
2019-03-16T20:27:33.814Z,3.08
2019-03-16T20:30:01.188Z,2.87
2019-03-16T20:32:28.035Z,3.10
2019-03-16T20:34:55.245Z,2.77
2019-03-16T20:37:22.080Z,2.95
2019-03-16T20:39:48.875Z,3.85
2019-03-16T20:42:16.026Z,3.77
2019-03-16T20:44:42.918Z,3.70
2019-03-16T20:47:09.955Z,3.47
2019-03-16T20:49:36.955Z,3.20
2019-03-16T20:52:04.579Z,3.15
2019-03-16T20:54:32.297Z,3.10
2019-03-16T20:56:59.193Z,2.83
2019-03-16T20:59:26.570Z,2.72
2019-03-16T21:01:53.430Z,2.70
2019-03-16T21:04:20.775Z,3.00
2019-03-16T21:06:48.816Z,3.02
2019-03-16T21:09:16.282Z,3.10
2019-03-16T21:11:43.404Z,2.85
2019-03-16T21:14:10.944Z,3.22
2019-03-16T21:16:38.052Z,3.30
2019-03-16T21:19:05.188Z,3.30
2019-03-16T21:21:32.379Z,3.02
2019-03-16T21:24:00.091Z,3.20
2019-03-16T21:26:27.126Z,3.08
2019-03-16T21:28:54.192Z,3.22
2019-03-16T21:31:21.038Z,3.25
2019-03-16T21:33:47.984Z,3.37
2019-03-16T21:36:15.113Z,3.40
2019-03-16T21:38:42.072Z,3.50
2019-03-16T21:41:09.210Z,3.77
2019-03-16T21:43:35.992Z,2.90
2019-03-16T21:46:02.958Z,2.92
2019-03-16T21:48:29.826Z,3.08
2019-03-16T21:50:56.978Z,2.87
2019-03-16T21:53:23.777Z,3.10
2019-03-16T21:55:50.600Z,2.80
2019-03-16T21:58:17.398Z,2.87
2019-03-16T22:00:44.191Z,3.08
2019-03-16T22:03:10.948Z,3.00
2019-03-16T22:05:37.747Z,2.67
2019-03-16T22:08:04.673Z,2.77
2019-03-16T22:10:32.056Z,3.35
2019-03-16T22:12:58.963Z,2.95
2019-03-16T22:15:25.744Z,3.17
2019-03-16T22:17:52.631Z,3.05
2019-03-16T22:20:20.759Z,3.20
2019-03-16T22:22:47.605Z,3.30
2019-03-16T22:25:14.771Z,3.00
2019-03-16T22:27:42.577Z,3.75
2019-03-16T22:30:13.885Z,2.87
2019-03-16T22:32:40.937Z,3.22
2019-03-16T22:35:09.328Z,2.92
2019-03-16T22:37:36.427Z,2.75
2019-03-16T22:40:08.788Z,3.08
2019-03-16T22:42:35.786Z,3.00
2019-03-16T22:45:06.638Z,3.20
2019-03-16T22:47:33.623Z,2.85
2019-03-16T22:50:00.806Z,2.83
2019-03-16T22:52:28.284Z,2.90
2019-03-16T22:54:55.406Z,3.10
2019-03-16T22:57:22.367Z,2.75
2019-03-16T22:59:49.352Z,3.08
2019-03-16T23:02:16.417Z,3.08
2019-03-16T23:04:43.249Z,3.30
2019-03-16T23:07:10.413Z,2.75
2019-03-16T23:09:37.796Z,2.60
2019-03-16T23:12:05.047Z,3.47
2019-03-16T23:14:31.938Z,3.27
2019-03-16T23:16:58.692Z,2.75
2019-03-16T23:19:25.691Z,2.87
2019-03-16T23:21:53.232Z,2.83
2019-03-16T23:24:20.119Z,3.40
2019-03-16T23:26:48.773Z,3.27
2019-03-16T23:29:15.900Z,2.77
2019-03-16T23:31:42.878Z,2.98
2019-03-16T23:34:18.725Z,3.00
2019-03-16T23:36:39.488Z,3.10
2019-03-16T23:39:06.667Z,2.70
2019-03-16T23:41:33.441Z,3.00
2019-03-16T23:44:00.510Z,2.92
2019-03-16T23:46:28.413Z,3.08
2019-03-16T23:48:56.346Z,3.08
2019-03-16T23:51:23.187Z,3.45
2019-03-16T23:53:50.052Z,3.27
2019-03-16T23:56:17.338Z,3.50
2019-03-16T23:58:44.172Z,3.20
